Pagina principale
METAR-TAF:

METAR-TAF

Aeroporti :

Aeroporto di Nuuk

Nuuk, Groenlandia

latitudine: 64-10N, longitudine: 051-45W, altezza: 80 m

Osservazione

Il bollettino è stato emesso 28 minuti fa, alle 02:50 UTC
Vento 23 kt da sud
Temperature -1°C
Umidità 100%
Pressione 986 hPa
Visibilità: 4000 m
neve debole,

METAR: BGGH 020250Z AUTO 17023KT 4000 -SN FEW015/// BKN021/// OVC028/// M01/M01 Q0986

Ora: 00:18 (03:18 UTC)

Previsione

Il bollettino è stato emesso 8 ore e 15 minuti fa, alle 19:03 UTC
Previsione valida dal 01 alle 19 UTC al 01 alle 21 UTC
Vento 22 kt da sud
Visibilità 10 km o più
Nubi sparse ad un'altezza di 800 ft
Cielo coperto ad un'altezza di 4000 ft
Temporaneamente
dal 01 alle 19 UTC al 01 alle 21 UTC
Vento 28 kt da est/sud-est con raffiche fino a 40 kt
Visibilità: 2000 m
Nuvoloso ad un'altezza di 800 ft
neve, pioggia,

TAF: BGGH 011903Z 0119/0121 17022KT 9999 SCT008 OVC040 TEMPO 0119/0121 12028G40KT 2000 SNRA BKN008

Osservazioni e previsioni meteorologiche di più di 4000 aeroporti (messaggi METAR e TAF).

Le stazioni disponibili sono rappresentate dai dischi gialli e rossi sulla carta.

Puntare il mouse per vedere il nome della stazione.

Clicca sopra per visualizzare le osservazioni e previsioni meteorologiche.

Per cambiare la mappa : fare clic sui pulsanti verdi con una croce nera per ingrandire, il pulsante verde con un trattino per diminuire, o sulla freccia verde per le mappe adiacenti.


METAR-TAF: